createdAt,value
2022-12-01T00:01:12.709Z,20.20
2022-12-01T00:06:10.727Z,23.63
2022-12-01T00:11:09.931Z,20.77
2022-12-01T00:16:13.282Z,23.27
2022-12-01T00:21:07.862Z,19.90
2022-12-01T00:26:05.286Z,19.03
2022-12-01T00:30:59.009Z,23.43
2022-12-01T00:36:00.553Z,22.70
2022-12-01T00:40:53.942Z,24.03
2022-12-01T00:45:47.362Z,22.43
2022-12-01T00:50:40.809Z,24.33
2022-12-01T00:55:35.613Z,23.07
2022-12-01T01:00:29.378Z,23.03
2022-12-01T01:05:23.089Z,23.47
2022-12-01T01:10:16.499Z,23.43
2022-12-01T01:15:12.332Z,23.87
2022-12-01T01:20:07.097Z,22.57
2022-12-01T01:25:00.480Z,23.43
2022-12-01T01:29:53.892Z,22.53
2022-12-01T01:34:48.550Z,23.40
2022-12-01T01:39:41.860Z,20.63
2022-12-01T01:44:51.273Z,23.60
2022-12-01T01:49:44.955Z,22.97
2022-12-01T01:54:45.362Z,20.27
2022-12-01T01:59:44.733Z,20.20
2022-12-01T02:04:41.545Z,21.07
2022-12-01T02:09:35.620Z,19.90
2022-12-01T02:14:58.387Z,22.67
2022-12-01T02:20:45.260Z,28.50
2022-12-01T02:25:51.719Z,23.27
2022-12-01T02:30:51.906Z,27.00
2022-12-01T02:35:51.564Z,22.13
2022-12-01T02:40:53.540Z,19.83
2022-12-01T02:45:56.630Z,22.90
2022-12-01T02:50:52.147Z,21.77
2022-12-01T02:55:58.975Z,20.50
2022-12-01T03:01:29.029Z,22.10
2022-12-01T03:06:38.238Z,22.23
2022-12-01T03:11:45.342Z,23.73
2022-12-01T03:16:51.705Z,22.13
2022-12-01T03:21:53.860Z,22.53
2022-12-01T03:26:53.583Z,22.90
2022-12-01T03:31:56.034Z,21.17
2022-12-01T03:36:54.677Z,24.33
2022-12-01T03:41:55.228Z,20.47
2022-12-01T03:46:58.126Z,21.07
2022-12-01T03:52:07.030Z,19.53
2022-12-01T03:57:10.660Z,20.70
2022-12-01T04:02:07.862Z,20.73
2022-12-01T04:07:01.389Z,21.07
2022-12-01T04:12:12.006Z,20.33
2022-12-01T04:17:06.672Z,19.23
2022-12-01T04:22:00.033Z,21.73
2022-12-01T04:26:53.390Z,20.83
2022-12-01T04:31:46.796Z,22.67
2022-12-01T04:36:41.657Z,22.70
2022-12-01T04:41:35.279Z,21.90
2022-12-01T04:46:28.646Z,21.23
2022-12-01T04:51:23.116Z,22.13
2022-12-01T04:56:17.931Z,23.10
2022-12-01T05:01:15.709Z,20.43
2022-12-01T05:06:13.261Z,22.70
2022-12-01T05:11:08.173Z,23.23
2022-12-01T05:16:09.353Z,22.10
2022-12-01T05:21:04.101Z,22.57
2022-12-01T05:25:57.868Z,21.33
2022-12-01T05:30:51.990Z,23.33
2022-12-01T05:35:46.746Z,22.57
2022-12-01T05:40:40.300Z,25.67
2022-12-01T05:45:34.290Z,25.67
2022-12-01T05:50:29.334Z,25.20
2022-12-01T05:55:24.121Z,26.00
2022-12-01T06:00:19.147Z,26.33
2022-12-01T06:05:12.603Z,25.90
2022-12-01T06:10:07.985Z,26.83
2022-12-01T06:15:02.814Z,29.50
2022-12-01T06:19:56.187Z,25.30
2022-12-01T06:24:49.534Z,27.13
2022-12-01T06:29:43.711Z,29.27
2022-12-01T06:34:38.472Z,32.10
2022-12-01T06:39:31.935Z,28.37
2022-12-01T06:44:25.388Z,26.00
2022-12-01T06:49:18.717Z,27.23
2022-12-01T06:54:15.351Z,29.23
2022-12-01T06:59:08.909Z,29.20
2022-12-01T07:04:02.670Z,27.77
2022-12-01T07:08:55.985Z,30.63
2022-12-01T07:13:50.977Z,33.90
2022-12-01T07:18:45.292Z,29.73
2022-12-01T07:23:38.826Z,27.90
2022-12-01T07:28:32.456Z,31.97
2022-12-01T07:33:27.173Z,31.23
2022-12-01T07:38:22.288Z,31.20
2022-12-01T07:43:15.993Z,34.47
2022-12-01T07:48:09.367Z,33.80
2022-12-01T07:53:04.147Z,33.53
2022-12-01T07:58:00.736Z,32.20
2022-12-01T08:02:54.199Z,30.13
2022-12-01T08:07:47.566Z,33.33
2022-12-01T08:12:42.332Z,34.27
2022-12-01T08:17:35.725Z,31.57
2022-12-01T08:22:29.085Z,33.47
2022-12-01T08:27:22.461Z,31.87
2022-12-01T08:32:18.115Z,33.90
2022-12-01T08:37:11.658Z,38.37
2022-12-01T08:42:05.264Z,35.17
2022-12-01T08:46:58.755Z,32.07
2022-12-01T08:51:53.837Z,32.50
2022-12-01T08:56:47.387Z,32.97
2022-12-01T09:01:52.124Z,30.87
2022-12-01T09:06:48.331Z,35.63
2022-12-01T09:11:44.424Z,31.63
2022-12-01T09:16:38.433Z,30.30
2022-12-01T09:21:34.930Z,30.33
2022-12-01T09:26:29.333Z,32.33
2022-12-01T09:31:24.671Z,32.63
2022-12-01T09:36:18.159Z,32.83
2022-12-01T09:41:20.388Z,28.53
2022-12-01T09:46:21.488Z,29.20
2022-12-01T09:51:18.437Z,32.13
2022-12-01T09:56:23.294Z,32.17
2022-12-01T10:01:25.846Z,28.60
2022-12-01T10:06:30.723Z,28.03
2022-12-01T10:11:34.478Z,28.07
2022-12-01T10:16:38.936Z,30.47
2022-12-01T10:22:04.520Z,30.20
2022-12-01T10:27:15.286Z,30.43
2022-12-01T10:32:19.966Z,25.83
2022-12-01T10:37:34.631Z,28.17
2022-12-01T10:42:38.754Z,25.70
2022-12-01T10:47:32.866Z,26.80
2022-12-01T10:52:37.245Z,28.17
2022-12-01T10:57:33.205Z,25.17
2022-12-01T11:02:36.326Z,26.47
2022-12-01T11:07:36.109Z,25.97
2022-12-01T11:12:30.419Z,27.60
2022-12-01T11:17:37.414Z,23.60
2022-12-01T11:22:33.933Z,25.57
2022-12-01T11:27:31.717Z,25.13
2022-12-01T11:32:39.215Z,26.80
2022-12-01T11:37:39.406Z,23.30
2022-12-01T11:42:34.563Z,24.30
2022-12-01T11:47:29.361Z,25.67
2022-12-01T11:52:33.681Z,24.13
2022-12-01T11:57:36.392Z,25.50
2022-12-01T12:02:44.525Z,24.30
2022-12-01T12:07:57.350Z,24.20
2022-12-01T12:13:15.067Z,26.50
2022-12-01T12:18:48.712Z,25.50
2022-12-01T12:24:18.194Z,24.57
2022-12-01T12:29:37.408Z,23.57
2022-12-01T12:34:48.816Z,22.47
2022-12-01T12:40:21.073Z,22.23
2022-12-01T12:45:26.515Z,24.63
2022-12-01T12:50:32.611Z,26.03
2022-12-01T13:00:38.163Z,21.27
2022-12-01T13:11:01.689Z,24.27
2022-12-01T13:16:00.778Z,20.20
2022-12-01T13:20:54.498Z,19.37
2022-12-01T13:26:01.384Z,21.20
2022-12-01T13:31:19.787Z,20.80
2022-12-01T13:41:30.812Z,20.90
2022-12-01T13:46:30.802Z,21.03
2022-12-01T13:51:25.394Z,23.63
2022-12-01T13:56:48.388Z,23.20
2022-12-01T14:12:25.362Z,22.83
2022-12-01T14:17:30.627Z,19.47
2022-12-01T14:22:46.900Z,20.67
2022-12-01T14:27:43.311Z,20.27
2022-12-01T14:32:39.577Z,22.80
2022-12-01T14:48:00.882Z,27.73
2022-12-01T14:53:00.119Z,21.30
2022-12-01T14:58:06.342Z,23.77
2022-12-01T15:03:08.310Z,25.93
2022-12-01T15:08:40.884Z,27.90
2022-12-01T15:13:42.242Z,25.43
2022-12-01T15:18:38.481Z,23.77
2022-12-01T15:23:31.799Z,24.43
2022-12-01T15:28:33.664Z,23.40
2022-12-01T15:33:36.786Z,25.30
2022-12-01T15:38:36.814Z,27.27
2022-12-01T15:43:37.839Z,24.40
2022-12-01T15:48:35.445Z,25.37
2022-12-01T15:53:33.937Z,24.30
2022-12-01T16:03:29.489Z,24.87
2022-12-01T16:08:27.132Z,25.10
2022-12-01T16:13:45.478Z,25.33
2022-12-01T16:18:38.824Z,22.07
2022-12-01T16:23:34.085Z,26.67
2022-12-01T16:28:35.821Z,24.27
2022-12-01T16:33:30.937Z,23.30
2022-12-01T16:38:31.489Z,24.40
2022-12-01T16:43:27.978Z,24.87
2022-12-01T16:48:21.758Z,24.53
2022-12-01T16:53:17.207Z,23.07
2022-12-01T16:58:24.284Z,22.97
2022-12-01T17:03:18.613Z,22.00
2022-12-01T17:08:12.122Z,24.03
2022-12-01T17:13:06.860Z,24.33
2022-12-01T17:18:00.213Z,25.07
2022-12-01T17:22:53.606Z,25.47
2022-12-01T17:27:47.015Z,27.40
2022-12-01T17:32:41.709Z,25.07
2022-12-01T17:37:36.942Z,29.70
2022-12-01T17:42:32.573Z,24.17
2022-12-01T17:47:27.170Z,23.17
2022-12-01T17:52:26.644Z,23.27
2022-12-01T17:57:21.795Z,23.27
2022-12-01T18:02:15.243Z,25.80
2022-12-01T18:07:08.634Z,25.70
2022-12-01T18:12:03.447Z,22.07
2022-12-01T18:16:56.779Z,25.70
2022-12-01T18:21:50.796Z,24.07
2022-12-01T18:26:44.775Z,25.53
2022-12-01T18:31:40.443Z,23.33
2022-12-01T18:36:38.332Z,21.97
2022-12-01T18:41:32.220Z,25.80
2022-12-01T18:46:25.704Z,24.43
2022-12-01T18:51:22.103Z,21.47
2022-12-01T18:56:17.340Z,21.20
2022-12-01T19:01:21.517Z,20.53
2022-12-01T19:06:15.034Z,21.97
2022-12-01T19:16:12.116Z,20.13
2022-12-01T19:21:08.232Z,18.40
2022-12-01T19:26:06.089Z,17.53
2022-12-01T19:30:59.552Z,20.60
2022-12-01T19:35:54.468Z,21.40
2022-12-01T19:40:47.948Z,18.27
2022-12-01T19:45:41.779Z,20.33
2022-12-01T19:50:36.717Z,18.77
2022-12-01T19:55:31.709Z,18.70
2022-12-01T20:00:34.019Z,17.83
2022-12-01T20:05:27.954Z,17.70
2022-12-01T20:10:28.227Z,19.40
2022-12-01T20:15:23.377Z,19.40
2022-12-01T20:20:17.825Z,18.73
2022-12-01T20:25:11.151Z,18.83
2022-12-01T20:30:05.107Z,21.77
2022-12-01T20:34:59.845Z,19.53
2022-12-01T20:39:53.226Z,21.70
2022-12-01T20:44:46.680Z,20.87
2022-12-01T20:49:40.135Z,19.33
2022-12-01T20:54:35.046Z,20.73
2022-12-01T20:59:29.949Z,21.53
2022-12-01T21:04:23.426Z,23.70
2022-12-01T21:09:16.899Z,22.10
2022-12-01T21:14:20.979Z,24.47
2022-12-01T21:19:23.036Z,21.57
2022-12-01T21:24:19.906Z,21.07
2022-12-01T21:29:25.063Z,16.93
2022-12-01T21:34:22.126Z,18.17
2022-12-01T21:39:18.499Z,23.07
2022-12-01T21:44:17.309Z,20.57
2022-12-01T21:49:22.671Z,21.93
2022-12-01T21:54:21.026Z,19.47
2022-12-01T21:59:20.534Z,20.70
2022-12-01T22:04:24.720Z,17.53
2022-12-01T22:56:31.981Z,20.13
2022-12-01T23:01:30.246Z,21.67
2022-12-01T23:07:08.394Z,21.47
2022-12-01T23:25:31.456Z,25.53
2022-12-01T23:30:25.173Z,25.47
2022-12-01T23:35:19.773Z,23.40
2022-12-01T23:40:24.476Z,27.83
2022-12-01T23:45:26.909Z,24.67
2022-12-01T23:50:25.802Z,25.83
2022-12-01T23:55:26.754Z,25.27
